createdAt,value
2023-05-22T00:00:13.670Z,3.30
2023-05-22T00:02:44.121Z,3.30
2023-05-22T00:05:13.759Z,3.50
2023-05-22T00:07:43.646Z,3.50
2023-05-22T00:10:12.280Z,2.70
2023-05-22T00:12:39.672Z,3.30
2023-05-22T00:15:08.615Z,3.40
2023-05-22T00:17:37.323Z,3.90
2023-05-22T00:20:08.160Z,3.50
2023-05-22T00:22:36.739Z,3.60
2023-05-22T00:25:04.730Z,3.10
2023-05-22T00:27:32.188Z,3.00
2023-05-22T00:29:59.627Z,3.70
2023-05-22T00:32:27.322Z,3.20
2023-05-22T00:34:55.621Z,3.30
2023-05-22T00:37:26.181Z,3.40
2023-05-22T00:39:53.533Z,3.20
2023-05-22T00:42:21.533Z,3.40
2023-05-22T00:44:49.079Z,3.50
2023-05-22T00:47:17.023Z,3.60
2023-05-22T00:49:45.830Z,3.00
2023-05-22T00:52:13.083Z,3.60
2023-05-22T00:54:40.272Z,3.10
2023-05-22T00:57:08.217Z,3.00
2023-05-22T00:59:36.462Z,3.60
2023-05-22T01:02:03.876Z,3.70
2023-05-22T01:04:34.777Z,3.60
2023-05-22T01:07:03.210Z,3.30
2023-05-22T01:09:30.886Z,3.60
2023-05-22T01:12:04.298Z,3.40
2023-05-22T01:15:09.175Z,3.70
2023-05-22T01:17:53.632Z,3.80
2023-05-22T01:20:37.611Z,4.10
2023-05-22T01:23:29.570Z,3.30
2023-05-22T01:26:06.051Z,3.50
2023-05-22T01:28:34.390Z,3.80
2023-05-22T01:31:08.208Z,4.00
2023-05-22T01:33:55.206Z,3.80
2023-05-22T01:36:28.520Z,3.90
2023-05-22T01:38:57.312Z,3.00
2023-05-22T01:41:26.143Z,3.80
2023-05-22T01:43:53.459Z,5.30
2023-05-22T01:46:26.707Z,3.70
2023-05-22T01:48:55.221Z,3.60
2023-05-22T01:51:31.901Z,4.50
2023-05-22T01:54:07.796Z,4.50
2023-05-22T01:56:47.133Z,5.40
2023-05-22T01:59:48.711Z,4.50
2023-05-22T02:02:19.647Z,3.40
2023-05-22T02:04:59.461Z,3.70
2023-05-22T02:07:27.962Z,3.80
2023-05-22T02:09:58.078Z,4.10
2023-05-22T02:12:25.504Z,3.30
2023-05-22T02:14:56.008Z,3.90
2023-05-22T02:17:23.579Z,3.90
2023-05-22T02:19:50.971Z,4.10
2023-05-22T02:22:19.340Z,3.80
2023-05-22T02:24:47.691Z,4.20
2023-05-22T02:27:15.502Z,3.80
2023-05-22T02:29:42.799Z,4.00
2023-05-22T02:32:11.247Z,3.80
2023-05-22T02:34:39.611Z,4.50
2023-05-22T02:37:06.966Z,4.00
2023-05-22T02:39:35.193Z,3.80
2023-05-22T02:42:03.889Z,3.90
2023-05-22T02:44:31.236Z,4.70
2023-05-22T02:46:59.392Z,3.80
2023-05-22T02:49:28.225Z,4.40
2023-05-22T02:51:56.666Z,4.30
2023-05-22T02:54:25.460Z,3.80
2023-05-22T02:56:52.929Z,4.70
2023-05-22T02:59:20.200Z,4.10
2023-05-22T03:04:18.146Z,4.00
2023-05-22T03:06:52.195Z,4.00
2023-05-22T03:09:21.505Z,6.10
2023-05-22T03:11:50.420Z,5.30
2023-05-22T03:14:17.899Z,4.10
2023-05-22T03:16:45.647Z,4.60
2023-05-22T03:19:16.828Z,4.50
2023-05-22T03:21:44.582Z,3.90
2023-05-22T03:24:14.838Z,3.90
2023-05-22T03:26:43.588Z,4.40
2023-05-22T03:29:15.172Z,3.80
2023-05-22T03:31:42.585Z,4.00
2023-05-22T03:36:45.354Z,4.30
2023-05-22T03:39:13.097Z,4.50
2023-05-22T03:41:45.848Z,4.90
2023-05-22T03:44:13.316Z,5.00
2023-05-22T03:46:40.428Z,5.10
2023-05-22T03:49:07.547Z,5.00
2023-05-22T03:51:37.783Z,4.10
2023-05-22T03:54:05.455Z,4.20
2023-05-22T03:56:34.733Z,4.80
2023-05-22T03:59:03.578Z,4.20
2023-05-22T04:01:31.133Z,3.90
2023-05-22T04:04:05.440Z,3.60
2023-05-22T04:06:33.937Z,4.30
2023-05-22T04:09:01.124Z,4.20
2023-05-22T04:11:29.998Z,4.10
2023-05-22T04:14:02.748Z,3.60
2023-05-22T04:16:30.509Z,4.00
2023-05-22T04:18:58.501Z,4.20
2023-05-22T04:21:26.091Z,5.20
2023-05-22T04:23:53.740Z,4.40
2023-05-22T04:26:20.864Z,5.10
2023-05-22T04:28:49.042Z,4.50
2023-05-22T04:31:16.736Z,4.30
2023-05-22T04:33:48.095Z,3.50
2023-05-22T04:36:17.394Z,4.50
2023-05-22T04:38:47.136Z,4.40
2023-05-22T04:41:18.636Z,3.60
2023-05-22T04:43:48.162Z,3.70
2023-05-22T04:46:19.224Z,3.60
2023-05-22T04:48:47.673Z,4.30
2023-05-22T04:51:19.514Z,3.70
2023-05-22T04:53:49.253Z,4.40
2023-05-22T04:56:24.324Z,4.00
2023-05-22T04:58:59.556Z,3.90
2023-05-22T05:01:29.054Z,4.00
2023-05-22T05:04:00.924Z,4.90
2023-05-22T05:06:28.697Z,4.40
2023-05-22T05:08:56.248Z,4.30
2023-05-22T05:11:25.576Z,5.20
2023-05-22T05:13:53.158Z,4.20
2023-05-22T05:16:24.631Z,4.30
2023-05-22T05:18:54.405Z,3.90
2023-05-22T05:21:43.687Z,4.30
2023-05-22T05:24:12.313Z,4.00
2023-05-22T05:26:41.011Z,5.30
2023-05-22T05:29:12.832Z,4.80
2023-05-22T05:31:49.834Z,3.90
2023-05-22T05:34:34.038Z,4.30
2023-05-22T05:37:10.030Z,4.50
2023-05-22T05:39:40.409Z,4.70
2023-05-22T05:42:09.801Z,4.70
2023-05-22T05:44:37.862Z,4.60
2023-05-22T05:47:06.763Z,4.30
2023-05-22T05:49:35.941Z,4.50
2023-05-22T05:54:36.342Z,3.90
2023-05-22T05:57:10.776Z,4.10
2023-05-22T05:59:39.410Z,3.60
2023-05-22T06:02:32.180Z,3.70
2023-05-22T06:05:03.515Z,3.90
2023-05-22T06:07:37.819Z,3.70
2023-05-22T06:10:11.683Z,3.60
2023-05-22T06:13:06.162Z,3.60
2023-05-22T06:15:38.541Z,3.20
2023-05-22T06:18:06.528Z,3.30
2023-05-22T06:20:33.846Z,3.40
2023-05-22T06:23:02.931Z,3.00
2023-05-22T06:25:30.348Z,3.10
2023-05-22T06:28:01.576Z,3.10
2023-05-22T06:33:06.822Z,2.50
2023-05-22T06:35:36.665Z,2.90
2023-05-22T06:38:04.023Z,2.90
2023-05-22T06:40:31.620Z,2.60
2023-05-22T06:43:08.918Z,3.10
2023-05-22T06:45:47.433Z,2.90
2023-05-22T06:48:16.787Z,3.00
2023-05-22T06:50:58.787Z,2.80
2023-05-22T06:53:28.511Z,2.70
2023-05-22T06:55:56.338Z,2.60
2023-05-22T06:58:41.119Z,2.50
2023-05-22T07:01:09.683Z,2.50
2023-05-22T07:03:43.068Z,2.20
2023-05-22T07:06:50.733Z,2.20
2023-05-22T07:09:19.614Z,2.50
2023-05-22T07:11:50.082Z,2.60
2023-05-22T07:14:17.661Z,2.00
2023-05-22T07:16:48.524Z,2.30
2023-05-22T07:19:19.449Z,2.10
2023-05-22T07:21:46.948Z,2.20
2023-05-22T07:24:17.881Z,2.30
2023-05-22T07:26:49.000Z,2.40
2023-05-22T07:29:18.169Z,2.60
2023-05-22T07:34:15.974Z,2.00
2023-05-22T07:36:44.080Z,1.80
2023-05-22T07:39:11.390Z,1.70
2023-05-22T07:41:51.245Z,2.20
2023-05-22T07:44:28.024Z,3.00
2023-05-22T07:46:55.717Z,2.30
2023-05-22T07:49:23.814Z,2.60
2023-05-22T07:51:51.641Z,2.10
2023-05-22T07:54:19.296Z,2.30
2023-05-22T07:56:49.099Z,2.00
2023-05-22T07:59:19.266Z,1.80
2023-05-22T08:01:47.561Z,1.90
2023-05-22T08:04:16.344Z,2.00
2023-05-22T08:06:44.173Z,1.50
2023-05-22T08:09:11.441Z,1.40
2023-05-22T08:11:41.690Z,1.90
2023-05-22T08:14:09.072Z,1.50
2023-05-22T08:16:36.477Z,1.90
2023-05-22T08:19:06.666Z,2.20
2023-05-22T08:21:33.978Z,1.50
2023-05-22T08:24:03.903Z,2.60
2023-05-22T08:26:33.492Z,1.40
2023-05-22T08:29:00.693Z,1.80
2023-05-22T08:31:29.494Z,1.70
2023-05-22T08:34:03.378Z,1.80
2023-05-22T08:36:33.420Z,1.80
2023-05-22T08:39:01.010Z,1.40
2023-05-22T08:41:29.514Z,1.60
2023-05-22T08:43:56.547Z,1.30
2023-05-22T08:46:25.706Z,1.40
2023-05-22T08:48:58.613Z,1.70
2023-05-22T08:51:28.769Z,1.80
2023-05-22T08:53:55.994Z,1.70
2023-05-22T08:56:24.819Z,1.50
2023-05-22T08:58:53.012Z,1.10
2023-05-22T09:01:20.565Z,1.40
2023-05-22T09:03:50.728Z,1.60
2023-05-22T09:06:18.255Z,1.50
2023-05-22T09:08:45.655Z,1.60
2023-05-22T09:11:15.643Z,1.80
2023-05-22T09:13:44.317Z,1.50
2023-05-22T09:16:12.472Z,1.70
2023-05-22T09:18:45.845Z,1.60
2023-05-22T09:21:28.810Z,1.70
2023-05-22T09:24:00.822Z,1.50
2023-05-22T09:26:28.935Z,1.60
2023-05-22T09:28:58.240Z,1.80
2023-05-22T09:31:25.616Z,1.70
2023-05-22T09:33:53.771Z,1.70
2023-05-22T09:36:21.819Z,1.50
2023-05-22T09:38:52.058Z,1.50
2023-05-22T09:41:22.544Z,2.00
2023-05-22T09:43:51.046Z,1.60
2023-05-22T09:46:18.626Z,1.70
2023-05-22T09:48:51.617Z,1.40
2023-05-22T09:51:26.028Z,1.30
2023-05-22T09:53:56.087Z,1.50
2023-05-22T09:56:37.924Z,1.60
2023-05-22T09:59:08.456Z,1.60
2023-05-22T10:01:38.234Z,1.30
2023-05-22T10:04:06.148Z,1.80
2023-05-22T10:06:36.489Z,1.50
2023-05-22T10:11:32.887Z,1.80
2023-05-22T10:14:06.078Z,1.40
2023-05-22T10:16:35.964Z,1.70
2023-05-22T10:21:32.726Z,1.40
2023-05-22T10:24:00.782Z,1.50
2023-05-22T10:26:28.931Z,1.80
2023-05-22T10:29:03.055Z,1.40
2023-05-22T10:31:33.922Z,1.90
2023-05-22T10:34:17.954Z,1.70
2023-05-22T10:37:12.967Z,1.60
2023-05-22T10:40:03.118Z,1.40
2023-05-22T10:42:33.441Z,1.30
2023-05-22T10:45:08.971Z,1.80
2023-05-22T10:47:37.483Z,1.40
2023-05-22T10:50:09.263Z,1.50
2023-05-22T10:52:38.502Z,1.40
2023-05-22T10:55:16.962Z,1.70
2023-05-22T10:57:46.413Z,1.90
2023-05-22T11:00:15.172Z,1.70
2023-05-22T11:02:50.843Z,1.50
2023-05-22T11:05:34.013Z,1.40
2023-05-22T11:08:34.833Z,1.70
2023-05-22T11:11:12.102Z,1.40
2023-05-22T11:13:40.783Z,1.60
2023-05-22T11:16:09.815Z,1.50
2023-05-22T11:18:37.181Z,1.20
2023-05-22T11:21:07.856Z,1.50
2023-05-22T11:23:39.303Z,2.00
2023-05-22T11:26:23.270Z,1.30
2023-05-22T11:28:53.170Z,1.40
2023-05-22T11:31:22.702Z,1.30
2023-05-22T11:33:50.896Z,1.40
2023-05-22T11:36:19.376Z,1.80
2023-05-22T11:38:46.567Z,1.40
2023-05-22T11:41:14.722Z,1.30
2023-05-22T11:43:44.668Z,1.70
2023-05-22T11:46:26.429Z,1.70
2023-05-22T11:48:56.211Z,1.80
2023-05-22T11:51:27.837Z,1.70
2023-05-22T11:53:59.145Z,2.20
2023-05-22T11:58:59.929Z,2.30
2023-05-22T12:01:29.726Z,1.90
2023-05-22T12:03:56.931Z,2.20
2023-05-22T12:06:24.046Z,1.70
2023-05-22T12:08:51.093Z,1.80
2023-05-22T12:11:18.391Z,2.00
2023-05-22T12:13:45.437Z,1.50
2023-05-22T12:16:22.945Z,1.50
2023-05-22T12:18:57.906Z,1.80
2023-05-22T12:21:27.384Z,1.70
2023-05-22T12:23:54.642Z,1.60
2023-05-22T12:26:21.668Z,1.70
2023-05-22T12:28:55.289Z,1.50
2023-05-22T12:31:22.513Z,1.60
2023-05-22T12:33:53.312Z,1.90
2023-05-22T12:36:21.281Z,1.80
2023-05-22T12:38:49.013Z,1.80
2023-05-22T12:41:18.216Z,2.10
2023-05-22T12:43:49.312Z,1.50
2023-05-22T12:46:17.891Z,1.80
2023-05-22T12:48:45.277Z,1.80
2023-05-22T12:51:13.878Z,2.00
2023-05-22T12:53:40.831Z,1.70
2023-05-22T12:56:07.737Z,1.40
2023-05-22T12:58:34.608Z,2.20
2023-05-22T13:01:04.173Z,1.70
2023-05-22T13:03:32.151Z,1.80
2023-05-22T13:06:00.642Z,1.90
2023-05-22T13:08:31.402Z,2.20
2023-05-22T13:10:58.197Z,1.90
2023-05-22T13:13:26.648Z,2.00
2023-05-22T13:15:53.613Z,2.10
2023-05-22T13:18:22.364Z,1.60
2023-05-22T13:20:51.752Z,2.50
2023-05-22T13:23:18.977Z,1.70
2023-05-22T13:25:46.557Z,1.70
2023-05-22T13:28:18.825Z,1.60
2023-05-22T13:30:46.187Z,2.20
2023-05-22T13:33:15.182Z,2.00
2023-05-22T13:35:42.747Z,2.10
2023-05-22T13:38:11.626Z,1.80
2023-05-22T13:40:39.158Z,1.80
2023-05-22T13:43:06.066Z,2.10
2023-05-22T13:45:33.192Z,2.20
2023-05-22T13:48:00.435Z,1.90
2023-05-22T13:50:31.794Z,2.50
2023-05-22T13:52:59.265Z,2.90
2023-05-22T13:55:28.082Z,2.80
2023-05-22T13:57:55.257Z,2.40
2023-05-22T14:00:24.779Z,2.70
2023-05-22T14:02:52.327Z,2.00
2023-05-22T14:05:33.958Z,2.00
2023-05-22T14:08:05.310Z,2.50
2023-05-22T14:10:36.084Z,2.20
2023-05-22T14:13:04.343Z,2.40
2023-05-22T14:15:35.256Z,3.80
2023-05-22T14:18:06.121Z,2.20
2023-05-22T14:20:37.692Z,2.20
2023-05-22T14:23:06.128Z,2.00
2023-05-22T14:25:35.020Z,2.30
2023-05-22T14:28:03.355Z,1.90
2023-05-22T14:30:30.563Z,2.10
2023-05-22T14:32:57.901Z,4.40
2023-05-22T14:35:25.087Z,2.50
2023-05-22T14:37:53.072Z,3.00
2023-05-22T14:40:20.942Z,1.90
2023-05-22T14:42:53.286Z,2.10
2023-05-22T14:45:24.742Z,2.10
2023-05-22T14:47:52.189Z,2.10
2023-05-22T14:50:21.922Z,2.40
2023-05-22T14:52:50.009Z,1.90
2023-05-22T14:55:18.541Z,2.40
2023-05-22T14:57:48.838Z,2.50
2023-05-22T15:00:19.168Z,1.90
2023-05-22T15:02:47.602Z,2.40
2023-05-22T15:05:18.643Z,2.20
2023-05-22T15:07:47.897Z,2.60
2023-05-22T15:10:16.941Z,1.80
2023-05-22T15:12:44.739Z,2.00
2023-05-22T15:15:14.321Z,2.30
2023-05-22T15:17:42.811Z,2.90
2023-05-22T15:20:17.449Z,2.30
2023-05-22T15:22:45.207Z,2.00
2023-05-22T15:25:14.300Z,3.10
2023-05-22T15:27:42.833Z,2.70
2023-05-22T15:30:15.812Z,2.20
2023-05-22T15:32:44.312Z,2.40
2023-05-22T15:35:15.462Z,2.60
2023-05-22T15:37:42.601Z,2.30
2023-05-22T15:40:15.884Z,3.40
2023-05-22T15:42:43.248Z,2.90
2023-05-22T15:45:10.329Z,3.40
2023-05-22T15:47:39.501Z,3.20
2023-05-22T15:50:07.090Z,2.70
2023-05-22T15:52:34.161Z,2.50
2023-05-22T15:55:01.191Z,2.80
2023-05-22T15:57:28.419Z,2.60
2023-05-22T15:59:56.157Z,2.20
2023-05-22T16:02:23.682Z,2.20
2023-05-22T16:04:51.496Z,2.10
2023-05-22T16:07:19.598Z,2.10
2023-05-22T16:09:46.654Z,2.10
2023-05-22T16:12:14.597Z,2.60
2023-05-22T16:14:42.280Z,3.80
2023-05-22T16:17:09.222Z,2.90
2023-05-22T16:19:37.670Z,3.30
2023-05-22T16:22:05.196Z,2.40
2023-05-22T16:24:32.100Z,2.50
2023-05-22T16:27:00.525Z,2.50
2023-05-22T16:29:28.060Z,2.80
2023-05-22T16:31:57.038Z,3.00
2023-05-22T16:34:24.699Z,2.90
2023-05-22T16:36:52.150Z,2.40
2023-05-22T16:39:19.911Z,2.20
2023-05-22T16:41:47.162Z,2.60
2023-05-22T16:44:14.177Z,2.80
2023-05-22T16:46:42.823Z,3.40
2023-05-22T16:49:10.922Z,3.40
2023-05-22T16:51:39.354Z,4.20
2023-05-22T16:54:06.327Z,3.40
2023-05-22T16:56:34.628Z,2.80
2023-05-22T16:59:01.845Z,3.00
2023-05-22T17:01:29.272Z,3.00
2023-05-22T17:03:57.575Z,2.80
2023-05-22T17:06:27.096Z,2.90
2023-05-22T17:08:53.931Z,3.10
2023-05-22T17:11:24.649Z,2.60
2023-05-22T17:13:54.588Z,3.00
2023-05-22T17:16:24.392Z,3.30
2023-05-22T17:19:00.054Z,3.10
2023-05-22T17:21:27.470Z,3.90
2023-05-22T17:23:59.874Z,3.80
2023-05-22T17:29:37.721Z,4.30
2023-05-22T17:32:09.134Z,4.40
2023-05-22T17:34:36.605Z,4.00
2023-05-22T17:37:04.234Z,3.10
2023-05-22T17:39:35.357Z,3.10
2023-05-22T17:42:02.288Z,2.40
2023-05-22T17:44:30.899Z,2.40
2023-05-22T17:46:58.670Z,3.00
2023-05-22T17:49:26.428Z,2.80
2023-05-22T17:51:58.908Z,2.70
2023-05-22T17:54:41.123Z,3.90
2023-05-22T17:57:08.663Z,3.40
2023-05-22T17:59:39.238Z,2.90
2023-05-22T18:02:10.362Z,3.10
2023-05-22T18:04:37.890Z,3.00
2023-05-22T18:07:06.363Z,3.20
2023-05-22T18:09:33.382Z,3.80
2023-05-22T18:12:03.034Z,3.50
2023-05-22T18:14:36.737Z,3.10
2023-05-22T18:17:04.188Z,3.10
2023-05-22T18:19:33.460Z,2.40
2023-05-22T18:22:05.241Z,2.20
2023-05-22T18:24:36.115Z,2.50
2023-05-22T18:27:04.896Z,3.10
2023-05-22T18:29:32.693Z,3.00
2023-05-22T18:32:00.196Z,2.30
2023-05-22T18:34:27.297Z,5.10
2023-05-22T18:36:59.233Z,3.20
2023-05-22T18:39:27.717Z,2.70
2023-05-22T18:41:56.469Z,3.00
2023-05-22T18:44:28.446Z,2.90
2023-05-22T18:49:26.801Z,6.10
2023-05-22T18:51:57.909Z,4.30
2023-05-22T18:54:25.464Z,3.50
2023-05-22T18:56:55.958Z,3.80
2023-05-22T18:59:29.144Z,4.00
2023-05-22T19:01:59.476Z,4.00
2023-05-22T19:04:26.549Z,5.00
2023-05-22T19:06:56.782Z,3.90
2023-05-22T19:09:28.405Z,3.90
2023-05-22T19:11:55.863Z,4.40
2023-05-22T19:14:22.978Z,5.30
2023-05-22T19:16:50.424Z,5.20
2023-05-22T19:19:17.776Z,5.00
2023-05-22T19:21:45.590Z,6.00
2023-05-22T19:24:12.728Z,5.70
2023-05-22T19:26:39.913Z,5.80
2023-05-22T19:29:07.242Z,5.90
2023-05-22T19:31:35.975Z,6.50
2023-05-22T19:34:04.455Z,6.20
2023-05-22T19:36:33.480Z,6.50
2023-05-22T19:39:00.627Z,6.90
2023-05-22T19:41:27.596Z,6.50
2023-05-22T19:43:54.752Z,7.00
2023-05-22T19:46:22.683Z,7.30
2023-05-22T19:48:49.969Z,7.40
2023-05-22T19:51:16.875Z,15.00
2023-05-22T19:53:46.034Z,8.60
2023-05-22T19:56:13.076Z,7.50
2023-05-22T19:58:40.126Z,8.10
2023-05-22T20:01:07.057Z,7.20
2023-05-22T20:03:34.555Z,7.90
2023-05-22T20:06:01.544Z,7.40
2023-05-22T20:08:28.532Z,7.60
2023-05-22T20:10:55.513Z,7.70
2023-05-22T20:13:23.026Z,10.50
2023-05-22T20:15:52.700Z,7.80
2023-05-22T20:18:22.302Z,8.10
2023-05-22T20:20:49.616Z,8.20
2023-05-22T20:23:16.592Z,7.00
2023-05-22T20:25:44.553Z,7.30
2023-05-22T20:28:14.934Z,7.00
2023-05-22T20:30:41.923Z,6.60
2023-05-22T20:33:11.342Z,6.60
2023-05-22T20:35:38.756Z,6.70
2023-05-22T20:38:08.287Z,6.60
2023-05-22T20:40:41.793Z,6.30
2023-05-22T20:43:09.587Z,6.90
2023-05-22T20:45:36.943Z,7.60
2023-05-22T20:48:04.127Z,8.90
2023-05-22T20:50:32.300Z,7.80
2023-05-22T20:53:02.018Z,6.90
2023-05-22T20:55:29.134Z,7.60
2023-05-22T20:57:56.349Z,7.60
2023-05-22T21:00:25.591Z,6.90
2023-05-22T21:02:52.612Z,6.70
2023-05-22T21:05:19.632Z,6.50
2023-05-22T21:07:47.117Z,7.00
2023-05-22T21:10:14.086Z,6.50
2023-05-22T21:12:41.925Z,5.80
2023-05-22T21:15:11.930Z,5.20
2023-05-22T21:17:39.704Z,6.40
2023-05-22T21:20:07.687Z,6.60
2023-05-22T21:22:34.758Z,6.80
2023-05-22T21:25:03.339Z,6.30
2023-05-22T21:27:30.574Z,6.00
2023-05-22T21:29:58.584Z,5.80
2023-05-22T21:32:25.724Z,6.70
2023-05-22T21:34:52.850Z,7.00
2023-05-22T21:37:20.279Z,6.30
2023-05-22T21:39:47.245Z,5.80
2023-05-22T21:42:16.313Z,6.30
2023-05-22T21:44:43.574Z,5.70
2023-05-22T21:47:10.849Z,6.00
2023-05-22T21:49:39.592Z,5.30
2023-05-22T21:52:07.034Z,5.50
2023-05-22T21:54:34.980Z,5.30
2023-05-22T21:57:01.827Z,5.70
2023-05-22T21:59:28.920Z,6.60
2023-05-22T22:01:57.478Z,6.70
2023-05-22T22:04:24.523Z,4.80
2023-05-22T22:06:51.386Z,5.90
2023-05-22T22:09:18.205Z,5.80
2023-05-22T22:11:45.326Z,6.10
2023-05-22T22:14:12.877Z,5.40
2023-05-22T22:16:40.648Z,5.80
2023-05-22T22:19:08.973Z,5.70
2023-05-22T22:21:36.570Z,5.90
2023-05-22T22:24:04.311Z,6.00
2023-05-22T22:26:31.842Z,5.30
2023-05-22T22:28:59.151Z,5.50
2023-05-22T22:31:26.628Z,5.70
2023-05-22T22:33:54.301Z,5.70
2023-05-22T22:36:23.506Z,6.20
2023-05-22T22:38:50.563Z,5.50
2023-05-22T22:41:20.891Z,5.60
2023-05-22T22:43:48.547Z,5.40
2023-05-22T22:46:15.466Z,5.10
2023-05-22T22:48:44.134Z,5.30
2023-05-22T22:51:12.781Z,5.70
2023-05-22T22:53:40.606Z,5.10
2023-05-22T22:56:07.803Z,5.40
2023-05-22T22:58:36.020Z,4.60
2023-05-22T23:01:05.092Z,5.40
2023-05-22T23:03:33.834Z,4.60
2023-05-22T23:06:02.234Z,4.60
2023-05-22T23:08:29.435Z,4.70
2023-05-22T23:10:56.700Z,4.70
2023-05-22T23:13:24.414Z,4.20
2023-05-22T23:15:51.537Z,4.40
2023-05-22T23:18:18.872Z,4.70
2023-05-22T23:20:46.626Z,4.60
2023-05-22T23:23:14.803Z,5.00
2023-05-22T23:25:41.950Z,4.30
2023-05-22T23:28:09.408Z,4.20
2023-05-22T23:30:36.534Z,3.70
2023-05-22T23:33:05.652Z,3.80
2023-05-22T23:35:32.703Z,4.00
2023-05-22T23:38:00.854Z,4.10
2023-05-22T23:40:28.669Z,3.70
2023-05-22T23:42:55.813Z,4.00
2023-05-22T23:45:22.919Z,3.20
2023-05-22T23:47:49.924Z,3.80
2023-05-22T23:50:17.590Z,3.40
2023-05-22T23:52:47.950Z,3.50
2023-05-22T23:55:15.242Z,3.60
2023-05-22T23:57:42.283Z,3.60
